Aspen Park, Colorado
Current Conditions -  °F | °C
As of 7:53 PM on Tuesday 25 Nov 2014 (Local Time) from KAPA Reporting Station
Broken Clouds Broken Clouds  
Wind Chill: 34°   Ceiling: 20000
Heat Index: 41°   Visibility: 10mi
Dew Point: 21°   Wind: 13mph
Humidity: 45%   Direction: 330°NNW
Pressure: 29.95"   Gusts: NA
Location:  39.4975°N, 105.289°W
Report Text: KAPA 260253Z 33011KT 10SM FEW140 BKN200 05/M06 A2995 RMK AO2 SLP152 T00501061 53005
Loading
Personal Weather Stations






























Interactive Weather Map New forecast layout! Learn more

10-Day Weather Forecast

Advertisements
Track Severe Weather on mobile